createdAt,value
2023-03-01T00:00:42.109Z,964.9
2023-03-01T00:01:44.058Z,964.89
2023-03-01T00:02:46.110Z,964.87
2023-03-01T00:03:48.177Z,964.92
2023-03-01T00:04:50.062Z,964.91
2023-03-01T00:05:52.073Z,964.92
2023-03-01T00:06:54.106Z,964.94
2023-03-01T00:07:56.061Z,964.91
2023-03-01T00:08:58.086Z,964.94
2023-03-01T00:10:00.063Z,964.96
2023-03-01T00:11:02.132Z,964.95
2023-03-01T00:12:04.072Z,965
2023-03-01T00:13:06.077Z,965.02
2023-03-01T00:14:08.071Z,965
2023-03-01T00:15:10.066Z,965.01
2023-03-01T00:16:12.053Z,965.01
2023-03-01T00:17:23.668Z,965.05
2023-03-01T00:18:23.698Z,965.02
2023-03-01T00:19:23.715Z,965.02
2023-03-01T00:20:23.660Z,964.99
2023-03-01T00:21:23.670Z,964.99
2023-03-01T00:22:24.069Z,965
2023-03-01T00:23:26.086Z,965.01
2023-03-01T00:24:28.071Z,965.02
2023-03-01T00:25:30.135Z,965
2023-03-01T00:26:32.464Z,965
2023-03-01T00:27:34.067Z,964.98
2023-03-01T00:28:36.055Z,964.96
2023-03-01T00:29:38.066Z,964.93
2023-03-01T00:30:40.107Z,964.93
2023-03-01T00:31:42.070Z,964.94
2023-03-01T00:32:44.074Z,964.92
2023-03-01T00:33:46.075Z,964.9
2023-03-01T00:34:48.071Z,964.88
2023-03-01T00:35:50.117Z,964.89
2023-03-01T00:36:52.075Z,964.88
2023-03-01T00:37:54.076Z,964.89
2023-03-01T00:38:56.075Z,964.85
2023-03-01T00:39:58.079Z,964.84
2023-03-01T00:41:00.095Z,964.83
2023-03-01T00:42:02.083Z,964.82
2023-03-01T00:43:04.095Z,964.77
2023-03-01T00:44:23.676Z,964.76
2023-03-01T00:45:23.680Z,964.75
2023-03-01T00:46:23.739Z,964.73
2023-03-01T00:47:23.702Z,964.69
2023-03-01T00:48:23.695Z,964.71
2023-03-01T00:49:23.731Z,964.71
2023-03-01T00:50:23.678Z,964.71
2023-03-01T00:51:23.688Z,964.69
2023-03-01T00:52:23.688Z,964.66
2023-03-01T00:53:26.130Z,964.64
2023-03-01T00:54:30.085Z,964.65
2023-03-01T00:55:32.110Z,964.63
2023-03-01T00:56:34.309Z,964.63
2023-03-01T00:57:36.102Z,964.61
2023-03-01T00:58:38.110Z,964.64
2023-03-01T00:59:40.097Z,964.65
2023-03-01T01:00:42.092Z,964.61
2023-03-01T01:01:44.120Z,964.64
2023-03-01T01:02:46.146Z,964.64
2023-03-01T01:03:48.101Z,964.63
2023-03-01T01:04:50.088Z,964.61
2023-03-01T01:05:52.094Z,964.64
2023-03-01T01:06:54.105Z,964.63
2023-03-01T01:07:56.105Z,964.59
2023-03-01T01:08:58.158Z,964.58
2023-03-01T01:10:00.139Z,964.59
2023-03-01T01:11:02.097Z,964.61
2023-03-01T01:12:04.105Z,964.62
2023-03-01T01:13:06.366Z,964.61
2023-03-01T01:14:08.097Z,964.62
2023-03-01T01:15:10.116Z,964.61
2023-03-01T01:16:12.155Z,964.58
2023-03-01T01:17:14.103Z,964.56
2023-03-01T01:18:16.271Z,964.57
2023-03-01T01:19:18.109Z,964.54
2023-03-01T01:20:20.094Z,964.53
2023-03-01T01:21:22.098Z,964.53
2023-03-01T01:22:24.101Z,964.55
2023-03-01T01:23:26.134Z,964.51
2023-03-01T01:24:28.170Z,964.51
2023-03-01T01:25:30.100Z,964.56
2023-03-01T01:26:32.409Z,964.53
2023-03-01T01:27:34.179Z,964.52
2023-03-01T01:28:36.111Z,964.51
2023-03-01T01:29:38.105Z,964.49
2023-03-01T01:30:40.115Z,964.47
2023-03-01T01:31:42.134Z,964.5
2023-03-01T01:32:44.140Z,964.45
2023-03-01T01:33:46.125Z,964.45
2023-03-01T01:34:48.117Z,964.46
2023-03-01T01:35:50.152Z,964.48
2023-03-01T01:36:52.111Z,964.43
2023-03-01T01:37:54.144Z,964.4
2023-03-01T01:38:56.113Z,964.41
2023-03-01T01:39:58.114Z,964.43
2023-03-01T01:41:00.136Z,964.4
2023-03-01T01:42:02.120Z,964.42
2023-03-01T01:43:04.184Z,964.4
2023-03-01T01:44:06.118Z,964.37
2023-03-01T01:45:08.120Z,964.36
2023-03-01T01:46:10.178Z,964.37
2023-03-01T01:47:12.127Z,964.34
2023-03-01T01:48:14.113Z,964.33
2023-03-01T01:49:16.108Z,964.35
2023-03-01T01:50:18.111Z,964.35
2023-03-01T01:51:20.120Z,964.33
2023-03-01T01:52:22.165Z,964.33
2023-03-01T01:53:24.117Z,964.29
2023-03-01T01:54:26.134Z,964.3
2023-03-01T01:55:28.114Z,964.29
2023-03-01T01:56:30.484Z,964.26
2023-03-01T01:57:32.118Z,964.27
2023-03-01T01:58:34.178Z,964.23
2023-03-01T01:59:36.114Z,964.23
2023-03-01T02:01:40.121Z,964.2
2023-03-01T02:02:42.352Z,964.21
2023-03-01T02:03:44.384Z,964.19
2023-03-01T02:04:46.129Z,964.2
2023-03-01T02:05:55.024Z,964.16
2023-03-01T02:06:50.122Z,964.16
2023-03-01T02:07:52.128Z,964.14
2023-03-01T02:08:54.314Z,964.11
2023-03-01T02:09:56.129Z,964.14
2023-03-01T02:10:58.133Z,964.1
2023-03-01T02:12:00.184Z,964.04
2023-03-01T02:13:02.132Z,964.04
2023-03-01T02:14:04.187Z,964.04
2023-03-01T02:15:06.204Z,964.05
2023-03-01T02:16:08.151Z,964
2023-03-01T02:17:10.142Z,963.99
2023-03-01T02:18:12.127Z,963.98
2023-03-01T02:19:14.132Z,963.96
2023-03-01T02:20:16.166Z,963.94
2023-03-01T02:21:18.133Z,963.96
2023-03-01T02:22:20.193Z,963.98
2023-03-01T02:23:22.132Z,964.01
2023-03-01T02:24:24.350Z,963.98
2023-03-01T02:25:26.194Z,963.97
2023-03-01T02:26:28.502Z,963.97
2023-03-01T02:27:30.139Z,963.95
2023-03-01T02:28:32.135Z,964.01
2023-03-01T02:29:34.211Z,963.95
2023-03-01T02:30:36.160Z,964
2023-03-01T02:31:38.226Z,964.02
2023-03-01T02:32:40.151Z,963.98
2023-03-01T02:33:42.151Z,964.06
2023-03-01T02:34:44.169Z,964.04
2023-03-01T02:35:46.200Z,964.03
2023-03-01T02:36:48.196Z,964.05
2023-03-01T02:37:50.150Z,964.03
2023-03-01T02:38:52.151Z,963.99
2023-03-01T02:39:54.161Z,963.97
2023-03-01T02:40:56.152Z,963.96
2023-03-01T02:41:58.142Z,963.94
2023-03-01T02:43:00.166Z,963.91
2023-03-01T02:44:02.165Z,963.93
2023-03-01T02:45:04.149Z,963.9
2023-03-01T02:46:06.240Z,963.93
2023-03-01T02:47:08.183Z,963.93
2023-03-01T02:48:10.155Z,963.92
2023-03-01T02:49:12.149Z,963.91
2023-03-01T02:50:14.152Z,963.88
2023-03-01T02:51:16.174Z,963.86
2023-03-01T02:52:18.157Z,963.91
2023-03-01T02:53:20.160Z,963.89
2023-03-01T02:54:22.161Z,963.89
2023-03-01T02:55:24.157Z,963.87
2023-03-01T02:56:26.204Z,963.87
2023-03-01T02:57:28.174Z,963.87
2023-03-01T02:58:30.186Z,963.9
2023-03-01T02:59:32.165Z,963.86
2023-03-01T03:00:34.254Z,963.89
2023-03-01T03:01:36.156Z,963.89
2023-03-01T03:02:38.162Z,963.88
2023-03-01T03:03:40.282Z,963.86
2023-03-01T03:04:42.164Z,963.86
2023-03-01T03:05:44.171Z,963.84
2023-03-01T03:06:46.164Z,963.83
2023-03-01T03:07:48.199Z,963.81
2023-03-01T03:08:50.196Z,963.84
2023-03-01T03:09:52.161Z,963.83
2023-03-01T03:10:54.197Z,963.83
2023-03-01T03:11:56.167Z,963.81
2023-03-01T03:12:58.168Z,963.78
2023-03-01T03:14:00.213Z,963.81
2023-03-01T03:15:23.756Z,963.84
2023-03-01T03:16:23.817Z,963.82
2023-03-01T03:17:23.753Z,963.8
2023-03-01T03:18:23.758Z,963.74
2023-03-01T03:19:23.777Z,963.75
2023-03-01T03:20:23.760Z,963.75
2023-03-01T03:21:23.757Z,963.74
2023-03-01T03:22:23.762Z,963.76
2023-03-01T03:23:23.752Z,963.73
2023-03-01T03:24:23.777Z,963.71
2023-03-01T03:25:23.781Z,963.71
2023-03-01T03:26:24.175Z,963.7
2023-03-01T03:27:26.216Z,963.68
2023-03-01T03:28:28.170Z,963.69
2023-03-01T03:29:30.168Z,963.69
2023-03-01T03:30:32.174Z,963.73
2023-03-01T03:31:34.210Z,963.75
2023-03-01T03:32:36.190Z,963.74
2023-03-01T03:33:38.197Z,963.72
2023-03-01T03:34:40.180Z,963.7
2023-03-01T03:35:42.204Z,963.73
2023-03-01T03:36:44.241Z,963.72
2023-03-01T03:37:46.189Z,963.74
2023-03-01T03:38:48.183Z,963.73
2023-03-01T03:39:50.174Z,963.73
2023-03-01T03:40:52.171Z,963.74
2023-03-01T03:41:54.181Z,963.72
2023-03-01T03:42:56.203Z,963.71
2023-03-01T03:43:58.173Z,963.69
2023-03-01T03:45:00.221Z,963.67
2023-03-01T03:46:02.259Z,963.65
2023-03-01T03:47:04.213Z,963.69
2023-03-01T03:48:06.209Z,963.67
2023-03-01T03:49:08.192Z,963.68
2023-03-01T03:50:10.229Z,963.65
2023-03-01T03:51:12.215Z,963.62
2023-03-01T03:52:14.235Z,963.61
2023-03-01T03:53:16.197Z,963.58
2023-03-01T03:54:18.238Z,963.58
2023-03-01T03:55:20.403Z,963.61
2023-03-01T03:56:22.189Z,963.59
2023-03-01T03:57:24.238Z,963.6
2023-03-01T03:58:26.204Z,963.6
2023-03-01T03:59:28.182Z,963.6
2023-03-01T04:00:30.233Z,963.6
2023-03-01T04:01:32.239Z,963.64
2023-03-01T04:02:34.251Z,963.64
2023-03-01T04:03:36.310Z,963.65
2023-03-01T04:04:38.198Z,963.64
2023-03-01T04:05:40.204Z,963.71
2023-03-01T04:06:42.186Z,963.7
2023-03-01T04:07:44.236Z,963.69
2023-03-01T04:08:46.201Z,963.7
2023-03-01T04:09:48.194Z,963.7
2023-03-01T04:10:50.204Z,963.69
2023-03-01T04:11:52.196Z,963.69
2023-03-01T04:12:54.214Z,963.72
2023-03-01T04:13:56.195Z,963.73
2023-03-01T04:14:58.204Z,963.71
2023-03-01T04:16:00.206Z,963.67
2023-03-01T04:17:02.212Z,963.65
2023-03-01T04:18:04.212Z,963.67
2023-03-01T04:19:06.203Z,963.73
2023-03-01T04:20:08.209Z,963.7
2023-03-01T04:21:10.201Z,963.7
2023-03-01T04:22:12.274Z,963.7
2023-03-01T04:23:14.492Z,963.7
2023-03-01T04:24:16.205Z,963.71
2023-03-01T04:25:18.224Z,963.71
2023-03-01T04:26:20.205Z,963.66
2023-03-01T04:27:22.218Z,963.63
2023-03-01T04:28:24.229Z,963.61
2023-03-01T04:29:26.226Z,963.57
2023-03-01T04:30:28.207Z,963.56
2023-03-01T04:31:30.292Z,963.56
2023-03-01T04:32:32.273Z,963.54
2023-03-01T04:33:34.250Z,963.51
2023-03-01T04:34:36.214Z,963.56
2023-03-01T04:35:38.398Z,963.52
2023-03-01T04:36:40.347Z,963.48
2023-03-01T04:38:44.215Z,963.55
2023-03-01T04:39:46.223Z,963.61
2023-03-01T04:40:48.239Z,963.64
2023-03-01T04:41:50.214Z,963.65
2023-03-01T04:42:52.252Z,963.66
2023-03-01T04:43:54.268Z,963.67
2023-03-01T04:44:56.215Z,963.67
2023-03-01T04:45:58.260Z,963.66
2023-03-01T04:47:00.220Z,963.67
2023-03-01T04:48:02.222Z,963.64
2023-03-01T04:49:04.277Z,963.71
2023-03-01T04:50:06.227Z,963.67
2023-03-01T04:51:08.227Z,963.66
2023-03-01T04:52:10.216Z,963.61
2023-03-01T04:53:13.225Z,963.6
2023-03-01T04:54:15.242Z,963.54
2023-03-01T04:55:17.222Z,963.52
2023-03-01T04:56:19.231Z,963.46
2023-03-01T04:57:21.229Z,963.46
2023-03-01T04:58:23.257Z,963.48
2023-03-01T04:59:26.244Z,963.47
2023-03-01T05:00:28.244Z,963.47
2023-03-01T05:01:30.234Z,963.48
2023-03-01T05:02:32.255Z,963.45
2023-03-01T05:03:34.238Z,963.46
2023-03-01T05:04:36.327Z,963.45
2023-03-01T05:05:38.314Z,963.51
2023-03-01T05:06:40.233Z,963.53
2023-03-01T05:07:42.240Z,963.5
2023-03-01T05:08:44.231Z,963.47
2023-03-01T05:09:46.257Z,963.49
2023-03-01T05:10:48.245Z,963.51
2023-03-01T05:11:50.236Z,963.52
2023-03-01T05:12:52.239Z,963.51
2023-03-01T05:13:54.278Z,963.54
2023-03-01T05:14:56.275Z,963.55
2023-03-01T05:15:58.280Z,963.54
2023-03-01T05:17:00.254Z,963.52
2023-03-01T05:18:02.241Z,963.48
2023-03-01T05:19:04.238Z,963.51
2023-03-01T05:20:06.241Z,963.47
2023-03-01T05:21:08.253Z,963.49
2023-03-01T05:22:10.248Z,963.48
2023-03-01T05:23:12.270Z,963.48
2023-03-01T05:24:14.276Z,963.45
2023-03-01T05:25:16.242Z,963.46
2023-03-01T05:26:39.387Z,963.42
2023-03-01T05:27:20.247Z,963.42
2023-03-01T05:28:22.266Z,963.46
2023-03-01T05:29:24.346Z,963.46
2023-03-01T05:30:26.307Z,963.45
2023-03-01T05:31:28.345Z,963.48
2023-03-01T05:32:30.250Z,963.45
2023-03-01T05:33:32.259Z,963.44
2023-03-01T05:34:34.249Z,963.44
2023-03-01T05:35:36.304Z,963.46
2023-03-01T05:36:38.252Z,963.44
2023-03-01T05:37:40.254Z,963.45
2023-03-01T05:38:42.254Z,963.42
2023-03-01T05:39:44.231Z,963.47
2023-03-01T05:40:46.259Z,963.47
2023-03-01T05:41:48.258Z,963.46
2023-03-01T05:42:50.260Z,963.52
2023-03-01T05:43:52.253Z,963.5
2023-03-01T05:44:54.253Z,963.48
2023-03-01T05:45:56.320Z,963.47
2023-03-01T05:46:58.329Z,963.46
2023-03-01T05:48:00.260Z,963.48
2023-03-01T05:49:02.239Z,963.46
2023-03-01T05:50:04.298Z,963.46
2023-03-01T05:51:06.250Z,963.46
2023-03-01T05:52:08.262Z,963.4
2023-03-01T05:53:10.262Z,963.43
2023-03-01T05:54:12.272Z,963.42
2023-03-01T05:55:14.296Z,963.39
2023-03-01T05:56:16.311Z,963.43
2023-03-01T05:57:18.271Z,963.42
2023-03-01T05:58:20.278Z,963.42
2023-03-01T05:59:22.283Z,963.34
2023-03-01T06:00:24.275Z,963.35
2023-03-01T06:02:28.285Z,963.35
2023-03-01T06:03:30.306Z,963.38
2023-03-01T06:04:32.303Z,963.38
2023-03-01T06:05:34.316Z,963.45
2023-03-01T06:06:36.287Z,963.49
2023-03-01T06:07:38.301Z,963.47
2023-03-01T06:08:40.282Z,963.46
2023-03-01T06:09:42.283Z,963.46
2023-03-01T06:10:44.278Z,963.44
2023-03-01T06:11:46.303Z,963.43
2023-03-01T06:12:48.314Z,963.36
2023-03-01T06:13:50.334Z,963.35
2023-03-01T06:14:52.276Z,963.33
2023-03-01T06:15:54.359Z,963.33
2023-03-01T06:16:56.282Z,963.3
2023-03-01T06:18:00.024Z,963.28
2023-03-01T06:19:00.307Z,963.29
2023-03-01T06:20:02.288Z,963.33
2023-03-01T06:21:04.290Z,963.29
2023-03-01T06:22:06.286Z,963.34
2023-03-01T06:23:09.776Z,963.42
2023-03-01T06:24:10.285Z,963.42
2023-03-01T06:25:12.296Z,963.47
2023-03-01T06:26:14.279Z,963.5
2023-03-01T06:28:18.299Z,963.54
2023-03-01T06:29:20.302Z,963.58
2023-03-01T06:30:22.331Z,963.58
2023-03-01T06:31:24.359Z,963.54
2023-03-01T06:32:26.370Z,963.51
2023-03-01T06:33:30.306Z,963.53
2023-03-01T06:34:32.331Z,963.53
2023-03-01T06:35:34.400Z,963.54
2023-03-01T06:36:36.315Z,963.53
2023-03-01T06:37:38.322Z,963.51
2023-03-01T06:38:40.351Z,963.52
2023-03-01T06:39:42.306Z,963.44
2023-03-01T06:40:44.312Z,963.44
2023-03-01T06:41:46.302Z,963.42
2023-03-01T06:42:48.329Z,963.38
2023-03-01T06:43:50.319Z,963.35
2023-03-01T06:44:52.319Z,963.3
2023-03-01T06:45:54.304Z,963.32
2023-03-01T06:46:56.394Z,963.33
2023-03-01T06:47:58.303Z,963.26
2023-03-01T06:49:00.301Z,963.28
2023-03-01T06:50:02.382Z,963.27
2023-03-01T06:51:04.318Z,963.21
2023-03-01T06:52:06.308Z,963.2
2023-03-01T06:53:08.375Z,963.23
2023-03-01T06:54:10.355Z,963.25
2023-03-01T06:55:12.312Z,963.29
2023-03-01T06:56:14.304Z,963.27
2023-03-01T06:57:16.352Z,963.27
2023-03-01T06:58:18.327Z,963.27
2023-03-01T06:59:20.361Z,963.29
2023-03-01T07:00:22.305Z,963.26
2023-03-01T07:01:24.336Z,963.27
2023-03-01T07:02:26.427Z,963.28
2023-03-01T07:03:28.314Z,963.27
2023-03-01T07:05:32.311Z,963.3
2023-03-01T07:06:34.343Z,963.26
2023-03-01T07:07:36.321Z,963.27
2023-03-01T07:08:38.310Z,963.3
2023-03-01T07:09:40.364Z,963.3
2023-03-01T07:10:42.314Z,963.28
2023-03-01T07:11:44.314Z,963.28
2023-03-01T07:12:46.360Z,963.28
2023-03-01T07:13:48.321Z,963.29
2023-03-01T07:14:50.319Z,963.29
2023-03-01T07:15:52.345Z,963.31
2023-03-01T07:16:54.311Z,963.29
2023-03-01T07:17:56.322Z,963.29
2023-03-01T07:18:59.787Z,963.34
2023-03-01T07:20:00.358Z,963.35
2023-03-01T07:21:02.329Z,963.36
2023-03-01T07:22:04.338Z,963.3
2023-03-01T07:23:06.346Z,963.31
2023-03-01T07:24:08.340Z,963.31
2023-03-01T07:25:10.327Z,963.27
2023-03-01T07:27:14.334Z,963.33
2023-03-01T07:28:16.540Z,963.34
2023-03-01T07:29:18.322Z,963.34
2023-03-01T07:30:20.373Z,963.33
2023-03-01T07:31:22.320Z,963.37
2023-03-01T07:32:24.429Z,963.38
2023-03-01T07:33:26.432Z,963.29
2023-03-01T07:34:28.324Z,963.3
2023-03-01T07:35:30.426Z,963.28
2023-03-01T07:36:32.680Z,963.26
2023-03-01T07:37:34.372Z,963.27
2023-03-01T07:38:36.372Z,963.24
2023-03-01T07:39:38.380Z,963.23
2023-03-01T07:40:40.400Z,963.26
2023-03-01T07:42:44.428Z,963.25
2023-03-01T07:43:46.382Z,963.26
2023-03-01T07:44:48.335Z,963.26
2023-03-01T07:45:50.370Z,963.24
2023-03-01T07:46:52.341Z,963.25
2023-03-01T07:47:54.373Z,963.25
2023-03-01T07:48:56.340Z,963.24
2023-03-01T07:49:58.337Z,963.23
2023-03-01T07:51:00.362Z,963.23
2023-03-01T07:52:02.377Z,963.19
2023-03-01T07:53:04.334Z,963.2
2023-03-01T07:54:06.379Z,963.2
2023-03-01T07:55:08.385Z,963.21
2023-03-01T07:56:10.338Z,963.21
2023-03-01T07:57:12.401Z,963.18
2023-03-01T07:58:14.384Z,963.19
2023-03-01T07:59:16.382Z,963.16
2023-03-01T08:00:18.344Z,963.14
2023-03-01T08:01:20.365Z,963.15
2023-03-01T08:02:22.343Z,963.12
2023-03-01T08:03:24.417Z,963.11
2023-03-01T08:04:26.370Z,963.09
2023-03-01T08:05:28.361Z,963.09
2023-03-01T08:06:30.627Z,963.08
2023-03-01T08:07:32.345Z,963.08
2023-03-01T08:08:34.351Z,963.02
2023-03-01T08:09:36.367Z,963.03
2023-03-01T08:10:38.359Z,963.01
2023-03-01T08:11:40.381Z,962.99
2023-03-01T08:12:43.355Z,963.03
2023-03-01T08:13:45.356Z,963.01
2023-03-01T08:14:47.342Z,963.01
2023-03-01T08:15:49.350Z,963.03
2023-03-01T08:16:51.529Z,963.04
2023-03-01T08:17:53.347Z,963.05
2023-03-01T08:18:55.367Z,963
2023-03-01T08:19:57.381Z,963.02
2023-03-01T08:20:59.351Z,962.96
2023-03-01T08:22:01.353Z,962.98
2023-03-01T08:23:03.357Z,962.98
2023-03-01T08:24:05.357Z,962.96
2023-03-01T08:25:07.495Z,962.98
2023-03-01T08:26:09.504Z,962.96
2023-03-01T08:27:11.353Z,962.97
2023-03-01T08:28:13.358Z,962.93
2023-03-01T08:29:15.373Z,962.92
2023-03-01T08:30:17.391Z,962.88
2023-03-01T08:31:19.424Z,962.91
2023-03-01T08:32:21.571Z,962.86
2023-03-01T08:33:23.505Z,962.86
2023-03-01T08:34:26.408Z,962.84
2023-03-01T08:35:30.396Z,962.8
2023-03-01T08:36:32.757Z,962.76
2023-03-01T08:37:34.353Z,962.72
2023-03-01T08:38:36.376Z,962.73
2023-03-01T08:39:38.466Z,962.76
2023-03-01T08:40:40.420Z,962.76
2023-03-01T08:41:42.360Z,962.72
2023-03-01T08:42:44.374Z,962.74
2023-03-01T08:43:46.391Z,962.72
2023-03-01T08:44:48.362Z,962.74
2023-03-01T08:45:50.430Z,962.68
2023-03-01T08:46:52.435Z,962.66
2023-03-01T08:47:54.441Z,962.65
2023-03-01T08:48:56.407Z,962.64
2023-03-01T08:49:58.365Z,962.65
2023-03-01T08:51:00.365Z,962.63
2023-03-01T08:52:02.394Z,962.66
2023-03-01T08:53:04.498Z,962.64
2023-03-01T08:54:06.416Z,962.65
2023-03-01T08:55:08.373Z,962.63
2023-03-01T08:56:10.366Z,962.61
2023-03-01T08:57:12.376Z,962.57
2023-03-01T08:58:14.365Z,962.55
2023-03-01T08:59:16.438Z,962.53
2023-03-01T09:00:18.373Z,962.58
2023-03-01T09:01:20.374Z,962.53
2023-03-01T09:02:22.421Z,962.53
2023-03-01T09:03:24.514Z,962.49
2023-03-01T09:04:26.391Z,962.49
2023-03-01T09:05:28.377Z,962.49
2023-03-01T09:06:30.688Z,962.5
2023-03-01T09:07:32.374Z,962.52
2023-03-01T09:08:34.380Z,962.5
2023-03-01T09:09:36.404Z,962.51
2023-03-01T09:10:38.410Z,962.49
2023-03-01T09:11:40.430Z,962.48
2023-03-01T09:12:42.388Z,962.49
2023-03-01T09:13:44.519Z,962.46
2023-03-01T09:14:46.420Z,962.47
2023-03-01T09:15:48.388Z,962.39
2023-03-01T09:16:50.517Z,962.39
2023-03-01T09:17:52.398Z,962.42
2023-03-01T09:18:54.386Z,962.39
2023-03-01T09:19:56.390Z,962.41
2023-03-01T09:20:58.388Z,962.39
2023-03-01T09:22:00.420Z,962.39
2023-03-01T09:23:02.443Z,962.4
2023-03-01T09:24:04.401Z,962.38
2023-03-01T09:25:06.421Z,962.4
2023-03-01T09:26:08.391Z,962.37
2023-03-01T09:27:10.472Z,962.34
2023-03-01T09:28:27.651Z,962.23
2023-03-01T09:29:14.395Z,962.24
2023-03-01T09:30:16.393Z,962.26
2023-03-01T09:31:18.479Z,962.28
2023-03-01T09:32:20.461Z,962.27
2023-03-01T09:33:22.407Z,962.26
2023-03-01T09:34:24.602Z,962.24
2023-03-01T09:35:26.410Z,962.27
2023-03-01T09:36:28.401Z,962.26
2023-03-01T09:37:30.439Z,962.26
2023-03-01T09:38:32.449Z,962.25
2023-03-01T09:39:34.402Z,962.24
2023-03-01T09:40:36.447Z,962.22
2023-03-01T09:41:38.415Z,962.19
2023-03-01T09:42:41.436Z,962.18
2023-03-01T09:43:44.485Z,962.19
2023-03-01T09:44:45.398Z,962.2
2023-03-01T09:45:47.449Z,962.19
2023-03-01T09:46:49.403Z,962.15
2023-03-01T09:47:51.452Z,962.15
2023-03-01T09:48:53.406Z,962.15
2023-03-01T09:49:55.416Z,962.15
2023-03-01T09:50:57.403Z,962.13
2023-03-01T09:51:59.414Z,962.09
2023-03-01T09:53:01.517Z,962.08
2023-03-01T09:54:03.409Z,962.08
2023-03-01T09:55:05.414Z,962.08
2023-03-01T09:56:07.407Z,962.07
2023-03-01T09:57:09.420Z,962.1
2023-03-01T09:58:11.449Z,962.06
2023-03-01T09:59:13.417Z,962.05
2023-03-01T10:00:15.418Z,962.07
2023-03-01T10:01:17.411Z,962.06
2023-03-01T10:02:19.413Z,962.05
2023-03-01T10:03:21.598Z,962.1
2023-03-01T10:04:23.481Z,962.05
2023-03-01T10:05:26.455Z,962.03
2023-03-01T10:06:34.981Z,962.02
2023-03-01T10:07:31.424Z,961.98
2023-03-01T10:08:33.497Z,961.97
2023-03-01T10:09:35.428Z,961.98
2023-03-01T10:10:37.433Z,961.95
2023-03-01T10:11:40.411Z,961.93
2023-03-01T10:12:41.436Z,961.97
2023-03-01T10:13:43.455Z,961.93
2023-03-01T10:14:45.425Z,961.92
2023-03-01T10:15:47.536Z,961.93
2023-03-01T10:16:49.431Z,961.89
2023-03-01T10:17:51.427Z,961.84
2023-03-01T10:18:53.440Z,961.88
2023-03-01T10:19:55.454Z,961.88
2023-03-01T10:20:57.460Z,961.89
2023-03-01T10:21:59.429Z,961.86
2023-03-01T10:23:01.454Z,961.9
2023-03-01T10:24:03.429Z,961.9
2023-03-01T10:25:05.455Z,961.84
2023-03-01T10:26:07.449Z,961.82
2023-03-01T10:27:09.441Z,961.83
2023-03-01T10:28:11.435Z,961.83
2023-03-01T10:29:13.541Z,961.79
2023-03-01T10:30:15.493Z,961.78
2023-03-01T10:31:17.540Z,961.78
2023-03-01T10:32:19.485Z,961.77
2023-03-01T10:33:21.443Z,961.74
2023-03-01T10:34:23.473Z,961.74
2023-03-01T10:35:26.469Z,961.73
2023-03-01T10:36:29.650Z,961.72
2023-03-01T10:37:31.482Z,961.69
2023-03-01T10:38:33.454Z,961.66
2023-03-01T10:39:35.958Z,961.69
2023-03-01T10:40:37.489Z,961.62
2023-03-01T10:41:39.447Z,961.65
2023-03-01T10:42:41.490Z,961.64
2023-03-01T10:43:43.492Z,961.6
2023-03-01T10:44:45.466Z,961.61
2023-03-01T10:45:47.661Z,961.56
2023-03-01T10:46:49.449Z,961.6
2023-03-01T10:47:51.448Z,961.63
2023-03-01T10:48:53.449Z,961.6
2023-03-01T10:49:55.484Z,961.6
2023-03-01T10:50:57.465Z,961.56
2023-03-01T10:51:59.453Z,961.55
2023-03-01T10:53:01.456Z,961.51
2023-03-01T10:54:03.465Z,961.57
2023-03-01T10:55:05.498Z,961.45
2023-03-01T10:56:07.458Z,961.44
2023-03-01T10:57:23.280Z,961.45
2023-03-01T10:58:11.474Z,961.46
2023-03-01T10:59:13.463Z,961.41
2023-03-01T11:00:15.666Z,961.41
2023-03-01T11:01:17.724Z,961.44
2023-03-01T11:02:26.402Z,961.41
2023-03-01T11:03:22.751Z,961.38
2023-03-01T11:04:23.510Z,961.37
2023-03-01T11:05:26.556Z,961.37
2023-03-01T11:06:29.493Z,961.38
2023-03-01T11:07:31.496Z,961.37
2023-03-01T11:08:34.997Z,961.34
2023-03-01T11:09:35.466Z,961.33
2023-03-01T11:10:37.469Z,961.34
2023-03-01T11:11:39.467Z,961.34
2023-03-01T11:12:41.512Z,961.34
2023-03-01T11:13:43.469Z,961.33
2023-03-01T11:14:45.469Z,961.32
2023-03-01T11:15:47.482Z,961.31
2023-03-01T11:16:49.703Z,961.29
2023-03-01T11:17:57.011Z,961.29
2023-03-01T11:18:53.506Z,961.21
2023-03-01T11:20:14.790Z,961.23
2023-03-01T11:20:57.862Z,961.25
2023-03-01T11:21:59.886Z,961.22
2023-03-01T11:23:01.914Z,961.19
2023-03-01T11:24:03.861Z,961.16
2023-03-01T11:25:10.511Z,961.16
2023-03-01T11:26:07.863Z,961.19
2023-03-01T11:27:09.866Z,961.18
2023-03-01T11:28:11.904Z,961.14
2023-03-01T11:29:13.858Z,961.08
2023-03-01T11:30:15.928Z,961.05
2023-03-01T11:31:17.966Z,961.05
2023-03-01T11:32:20.124Z,961.06
2023-03-01T11:33:21.906Z,961.08
2023-03-01T11:34:23.864Z,961.06
2023-03-01T11:35:26.892Z,961.01
2023-03-01T11:36:29.862Z,961.01
2023-03-01T11:37:31.862Z,961.01
2023-03-01T11:38:33.947Z,961.03
2023-03-01T11:39:35.876Z,960.99
2023-03-01T11:40:37.873Z,960.93
2023-03-01T11:41:39.875Z,960.87
2023-03-01T11:42:41.894Z,960.89
2023-03-01T11:43:43.892Z,960.86
2023-03-01T11:44:45.872Z,960.85
2023-03-01T11:45:47.928Z,960.84
2023-03-01T11:46:50.037Z,960.83
2023-03-01T11:47:51.902Z,960.83
2023-03-01T11:48:53.942Z,960.82
2023-03-01T11:49:55.893Z,960.8
2023-03-01T11:50:57.918Z,960.77
2023-03-01T11:51:59.875Z,960.73
2023-03-01T11:53:01.879Z,960.73
2023-03-01T11:54:03.914Z,960.75
2023-03-01T11:55:05.881Z,960.7
2023-03-01T11:56:07.912Z,960.71
2023-03-01T11:57:09.889Z,960.74
2023-03-01T11:59:13.930Z,960.71
2023-03-01T12:00:15.887Z,960.73
2023-03-01T12:01:18.004Z,960.73
2023-03-01T12:02:20.000Z,960.7
2023-03-01T12:03:21.887Z,960.7
2023-03-01T12:04:23.932Z,960.7
2023-03-01T12:05:26.930Z,960.67
2023-03-01T12:06:29.893Z,960.65
2023-03-01T12:07:32.557Z,960.63
2023-03-01T12:08:33.893Z,960.64
2023-03-01T12:10:37.906Z,960.63
2023-03-01T12:11:40.451Z,960.62
2023-03-01T12:12:41.905Z,960.63
2023-03-01T12:13:43.915Z,960.65
2023-03-01T12:15:24.113Z,960.61
2023-03-01T12:16:37.590Z,960.58
2023-03-01T12:17:24.099Z,960.59
2023-03-01T12:18:24.120Z,960.58
2023-03-01T12:19:24.135Z,960.55
2023-03-01T12:20:24.129Z,960.6
2023-03-01T12:22:00.031Z,960.57
2023-03-01T12:23:14.647Z,960.54
2023-03-01T12:24:03.988Z,960.57
2023-03-01T12:25:05.896Z,960.54
2023-03-01T12:26:07.905Z,960.5
2023-03-01T12:27:09.901Z,960.51
2023-03-01T12:28:11.902Z,960.52
2023-03-01T12:29:13.951Z,960.48
2023-03-01T12:30:15.941Z,960.48
2023-03-01T12:32:20.085Z,960.45
2023-03-01T12:33:21.915Z,960.38
2023-03-01T12:34:23.961Z,960.32
2023-03-01T12:36:30.288Z,960.25
2023-03-01T12:38:24.167Z,960.32
2023-03-01T12:39:24.137Z,960.28
2023-03-01T12:40:37.969Z,960.23
2023-03-01T12:41:39.928Z,960.21
2023-03-01T12:43:24.105Z,960.18
2023-03-01T12:44:24.198Z,960.16
2023-03-01T12:45:24.125Z,960.15
2023-03-01T12:46:24.125Z,960.13
2023-03-01T12:47:24.154Z,960.17
2023-03-01T12:48:24.168Z,960.15
2023-03-01T12:49:24.125Z,960.09
2023-03-01T12:52:17.459Z,960.05
2023-03-01T12:53:01.945Z,960.05
2023-03-01T12:54:03.932Z,960.04
2023-03-01T12:55:24.152Z,960.05
2023-03-01T12:57:23.470Z,960.08
2023-03-01T12:58:12.988Z,960.05
2023-03-01T12:59:29.446Z,960.02
2023-03-01T13:00:24.152Z,959.99
2023-03-01T13:01:24.231Z,960.02
2023-03-01T13:02:24.132Z,959.99
2023-03-01T13:03:24.162Z,960
2023-03-01T13:04:24.961Z,959.99
2023-03-01T13:05:26.992Z,960
2023-03-01T13:06:38.162Z,959.97
2023-03-01T13:07:32.978Z,959.94
2023-03-01T13:08:34.969Z,959.91
2023-03-01T13:09:36.932Z,959.93
2023-03-01T13:10:39.542Z,959.95
2023-03-01T13:12:24.145Z,959.89
2023-03-01T13:14:24.235Z,959.84
2023-03-01T13:15:24.161Z,959.86